createdAt,value
2022-10-07T00:01:30.875Z,4.53
2022-10-07T00:05:34.950Z,5.63
2022-10-07T00:10:09.033Z,4.97
2022-10-07T00:14:13.486Z,5.50
2022-10-07T00:18:16.711Z,4.67
2022-10-07T00:22:54.475Z,4.30
2022-10-07T00:26:57.581Z,5.27
2022-10-07T00:31:36.486Z,4.50
2022-10-07T00:35:39.618Z,5.40
2022-10-07T00:39:42.801Z,4.80
2022-10-07T00:43:46.016Z,4.97
2022-10-07T00:47:52.040Z,5.40
2022-10-07T00:51:55.391Z,4.87
2022-10-07T00:56:29.910Z,5.80
2022-10-07T01:00:33.878Z,4.67
2022-10-07T01:04:38.678Z,5.33
2022-10-07T01:08:48.515Z,5.13
2022-10-07T01:13:05.619Z,5.37
2022-10-07T01:17:28.993Z,4.80
2022-10-07T01:21:40.667Z,5.07
2022-10-07T01:26:26.551Z,5.40
2022-10-07T01:30:35.876Z,5.00
2022-10-07T01:34:41.526Z,5.13
2022-10-07T01:39:17.744Z,4.90
2022-10-07T01:43:23.277Z,4.83
2022-10-07T01:48:00.250Z,5.60
2022-10-07T01:52:24.777Z,5.30
2022-10-07T01:56:43.826Z,4.90
2022-10-07T02:01:09.517Z,5.13
2022-10-07T02:05:21.611Z,4.73
2022-10-07T02:09:52.700Z,5.43
2022-10-07T02:14:01.469Z,4.67
2022-10-07T02:18:34.335Z,6.22
2022-10-07T02:22:41.192Z,5.77
2022-10-07T02:27:13.908Z,4.97
2022-10-07T02:31:19.383Z,4.83
2022-10-07T02:35:54.911Z,4.93
2022-10-07T02:40:01.094Z,4.53
2022-10-07T02:44:38.858Z,4.90
2022-10-07T02:48:47.484Z,4.60
2022-10-07T02:52:52.542Z,4.80
2022-10-07T02:57:26.561Z,5.00
2022-10-07T03:01:45.458Z,5.53
2022-10-07T03:06:07.242Z,4.03
2022-10-07T03:10:10.829Z,4.83
2022-10-07T03:14:50.061Z,4.70
2022-10-07T03:19:01.930Z,4.90
2022-10-07T03:23:33.290Z,5.03
2022-10-07T03:27:36.536Z,4.33
2022-10-07T03:32:14.883Z,6.30
2022-10-07T03:36:19.393Z,4.47
2022-10-07T03:40:52.926Z,4.90
2022-10-07T03:44:56.017Z,4.70
2022-10-07T03:49:02.453Z,3.90
2022-10-07T03:53:38.690Z,4.60
2022-10-07T03:58:13.348Z,4.27
2022-10-07T04:02:47.611Z,15.90
2022-10-07T04:07:24.717Z,5.07
2022-10-07T04:12:03.821Z,4.50
2022-10-07T04:16:39.735Z,5.40
2022-10-07T04:21:13.498Z,5.73
2022-10-07T04:25:50.576Z,5.93
2022-10-07T04:30:29.660Z,4.80
2022-10-07T04:35:05.329Z,4.67
2022-10-07T04:39:59.725Z,5.57
2022-10-07T04:44:15.138Z,5.60
2022-10-07T04:48:51.182Z,6.73
2022-10-07T04:53:24.950Z,6.50
2022-10-07T04:58:01.511Z,5.77
2022-10-07T05:02:38.443Z,5.40
2022-10-07T05:07:18.460Z,5.63
2022-10-07T05:11:55.699Z,5.47
2022-10-07T05:16:00.294Z,5.80
2022-10-07T05:20:04.831Z,5.47
2022-10-07T05:29:25.221Z,6.27
2022-10-07T05:33:59.241Z,5.10
2022-10-07T05:38:36.930Z,5.47
2022-10-07T05:43:14.006Z,5.33
2022-10-07T05:48:00.713Z,5.70
2022-10-07T05:52:40.044Z,15.90
2022-10-07T05:57:13.768Z,8.53
2022-10-07T06:01:50.758Z,5.97
2022-10-07T06:06:27.435Z,5.20
2022-10-07T06:11:23.479Z,7.33
2022-10-07T06:15:41.911Z,5.50
2022-10-07T06:20:19.064Z,5.87
2022-10-07T06:29:39.289Z,5.83
2022-10-07T06:34:13.117Z,6.00
2022-10-07T06:38:50.597Z,5.50
2022-10-07T06:43:24.953Z,4.83
2022-10-07T06:47:40.763Z,6.30
2022-10-07T06:52:14.861Z,7.00
2022-10-07T06:56:51.849Z,6.65
2022-10-07T07:01:28.987Z,6.03
2022-10-07T07:06:07.930Z,5.40
2022-10-07T07:10:42.981Z,6.03
2022-10-07T07:14:46.144Z,6.43
2022-10-07T07:19:22.898Z,7.35
2022-10-07T07:28:43.039Z,7.97
2022-10-07T07:33:17.148Z,6.60
2022-10-07T07:37:54.551Z,6.68
2022-10-07T07:42:31.608Z,6.78
2022-10-07T07:47:10.353Z,6.28
2022-10-07T07:51:44.333Z,6.57
2022-10-07T07:56:21.438Z,6.80
2022-10-07T08:00:28.377Z,7.13
2022-10-07T08:05:04.449Z,5.93
2022-10-07T08:09:38.336Z,6.70
2022-10-07T08:14:16.188Z,5.32
2022-10-07T08:18:54.383Z,5.75
2022-10-07T08:22:59.885Z,5.55
2022-10-07T08:27:33.729Z,4.90
2022-10-07T08:32:10.860Z,4.40
2022-10-07T08:36:49.278Z,4.13
2022-10-07T08:41:33.034Z,4.43
2022-10-07T08:46:06.041Z,4.03
2022-10-07T08:50:43.770Z,4.72
2022-10-07T08:55:15.034Z,4.47
2022-10-07T08:59:56.160Z,4.03
2022-10-07T09:04:33.160Z,4.07
2022-10-07T09:09:06.100Z,4.70
2022-10-07T09:13:42.966Z,3.60
2022-10-07T09:18:21.503Z,3.45
2022-10-07T09:22:59.004Z,3.50
2022-10-07T09:32:19.943Z,3.83
2022-10-07T09:36:54.005Z,3.92
2022-10-07T09:41:35.482Z,3.67
2022-10-07T09:46:07.498Z,3.65
2022-10-07T09:50:41.248Z,3.60
2022-10-07T09:55:21.677Z,3.67
2022-10-07T09:59:27.774Z,3.65
2022-10-07T10:04:01.979Z,3.00
2022-10-07T10:08:38.462Z,3.78
2022-10-07T10:13:24.688Z,3.38
2022-10-07T10:17:54.874Z,3.60
2022-10-07T10:22:28.497Z,3.50
2022-10-07T10:27:07.820Z,2.65
2022-10-07T10:31:22.433Z,3.30
2022-10-07T10:35:55.408Z,2.65
2022-10-07T10:40:27.491Z,3.58
2022-10-07T10:45:08.223Z,2.97
2022-10-07T10:49:38.772Z,3.00
2022-10-07T10:54:11.963Z,2.85
2022-10-07T10:58:28.003Z,2.53
2022-10-07T11:02:59.392Z,2.45
2022-10-07T11:07:38.893Z,2.38
2022-10-07T11:11:44.863Z,2.28
2022-10-07T11:15:51.698Z,2.28
2022-10-07T11:19:59.084Z,2.13
2022-10-07T11:24:10.327Z,2.35
2022-10-07T11:28:20.475Z,2.10
2022-10-07T11:32:50.958Z,2.20
2022-10-07T11:37:03.052Z,2.53
2022-10-07T11:41:33.362Z,1.95
2022-10-07T11:46:11.886Z,2.45
2022-10-07T11:50:20.426Z,2.17
2022-10-07T11:54:59.556Z,2.20
2022-10-07T11:59:40.100Z,2.15
2022-10-07T12:04:24.820Z,2.67
2022-10-07T12:08:53.214Z,2.95
2022-10-07T12:13:37.171Z,2.20
2022-10-07T12:18:10.638Z,2.10
2022-10-07T12:22:44.771Z,2.10
2022-10-07T12:27:25.090Z,2.25
2022-10-07T12:36:44.242Z,2.50
2022-10-07T12:41:26.941Z,2.30
2022-10-07T12:46:03.156Z,2.15
2022-10-07T12:50:38.657Z,2.40
2022-10-07T12:55:16.162Z,1.90
2022-10-07T12:59:58.298Z,3.13
2022-10-07T13:04:37.586Z,2.90
2022-10-07T13:09:20.362Z,2.53
2022-10-07T13:13:48.457Z,2.92
2022-10-07T13:18:18.602Z,2.42
2022-10-07T13:22:55.251Z,2.53
2022-10-07T13:27:30.381Z,2.40
2022-10-07T13:31:34.763Z,2.10
2022-10-07T13:35:39.856Z,2.05
2022-10-07T13:40:23.109Z,3.05
2022-10-07T13:45:01.326Z,2.65
2022-10-07T13:49:36.308Z,2.33
2022-10-07T13:54:08.686Z,2.38
2022-10-07T13:58:45.031Z,2.50
2022-10-07T14:02:50.842Z,2.25
2022-10-07T14:07:22.963Z,2.38
2022-10-07T14:11:26.012Z,2.42
2022-10-07T14:16:02.784Z,2.47
2022-10-07T14:20:19.116Z,2.60
2022-10-07T14:24:22.443Z,2.80
2022-10-07T14:28:30.750Z,2.63
2022-10-07T14:32:51.283Z,2.08
2022-10-07T14:37:08.298Z,2.53
2022-10-07T14:41:12.377Z,2.50
2022-10-07T14:45:20.594Z,2.75
2022-10-07T14:49:54.194Z,2.08
2022-10-07T14:54:06.133Z,2.63
2022-10-07T14:58:10.263Z,2.55
2022-10-07T15:02:14.511Z,2.30
2022-10-07T15:06:51.406Z,2.80
2022-10-07T15:11:30.274Z,2.17
2022-10-07T15:16:04.334Z,2.20
2022-10-07T15:20:41.946Z,2.85
2022-10-07T15:25:19.433Z,5.35
2022-10-07T15:29:55.495Z,2.38
2022-10-07T15:34:29.281Z,2.35
2022-10-07T15:39:06.440Z,2.50
2022-10-07T15:43:43.574Z,2.45
2022-10-07T15:48:23.194Z,3.38
2022-10-07T15:52:57.361Z,2.90
2022-10-07T15:57:00.442Z,2.97
2022-10-07T16:01:37.604Z,2.95
2022-10-07T16:05:42.212Z,3.30
2022-10-07T16:10:02.105Z,3.42
2022-10-07T16:14:05.320Z,3.05
2022-10-07T16:18:08.529Z,3.22
2022-10-07T16:22:47.179Z,3.20
2022-10-07T16:26:51.580Z,2.80
2022-10-07T16:31:25.807Z,2.70
2022-10-07T16:35:31.458Z,3.05
2022-10-07T16:39:36.291Z,3.30
2022-10-07T16:43:39.747Z,3.13
2022-10-07T16:47:43.204Z,2.95
2022-10-07T16:51:47.144Z,2.80
2022-10-07T16:56:23.427Z,3.60
2022-10-07T17:00:26.427Z,3.47
2022-10-07T17:05:03.241Z,3.60
2022-10-07T17:09:06.399Z,3.88
2022-10-07T17:13:10.878Z,3.35
2022-10-07T17:17:44.884Z,4.68
2022-10-07T17:21:49.042Z,6.30
2022-10-07T17:25:52.012Z,5.38
2022-10-07T17:30:31.552Z,6.45
2022-10-07T17:34:34.707Z,5.25
2022-10-07T17:38:39.314Z,5.50
2022-10-07T17:43:13.306Z,14.73
2022-10-07T17:47:17.798Z,10.40
2022-10-07T17:51:22.109Z,6.40
2022-10-07T17:55:25.286Z,5.60
2022-10-07T18:00:05.247Z,5.72
2022-10-07T18:04:38.977Z,5.35
2022-10-07T18:09:19.351Z,6.38
2022-10-07T18:14:10.321Z,6.75
2022-10-07T18:18:30.081Z,6.90
2022-10-07T18:23:04.075Z,7.50
2022-10-07T18:27:45.591Z,7.13
2022-10-07T18:32:23.321Z,8.50
2022-10-07T18:36:57.482Z,7.90
2022-10-07T18:41:34.524Z,7.60
2022-10-07T18:46:14.258Z,8.48
2022-10-07T18:50:51.735Z,7.00
2022-10-07T18:55:28.553Z,7.13
2022-10-07T19:00:05.908Z,7.28
2022-10-07T19:04:44.375Z,9.02
2022-10-07T19:09:19.114Z,8.65
2022-10-07T19:13:56.251Z,7.35
2022-10-07T19:18:29.986Z,7.72
2022-10-07T19:23:10.325Z,8.60
2022-10-07T19:27:44.442Z,9.05
2022-10-07T19:32:21.577Z,9.52
2022-10-07T19:36:59.428Z,10.35
2022-10-07T19:41:07.567Z,11.75
2022-10-07T19:45:11.574Z,10.15
2022-10-07T19:49:14.766Z,13.82
2022-10-07T19:53:51.745Z,13.88
2022-10-07T19:58:28.695Z,13.32
2022-10-07T20:03:05.285Z,14.45
2022-10-07T20:07:09.954Z,16.08
2022-10-07T20:11:44.306Z,16.50
2022-10-07T20:15:47.432Z,17.95
2022-10-07T20:20:24.527Z,17.23
2022-10-07T20:25:01.393Z,18.45
2022-10-07T20:29:57.191Z,18.77
2022-10-07T20:34:01.725Z,17.90
2022-10-07T20:38:04.919Z,18.20
2022-10-07T20:42:44.640Z,18.67
2022-10-07T20:47:19.535Z,20.17
2022-10-07T20:51:57.652Z,20.70
2022-10-07T20:56:32.452Z,19.60
2022-10-07T21:01:07.226Z,21.23
2022-10-07T21:05:45.606Z,23.10
2022-10-07T21:10:19.194Z,24.25
2022-10-07T21:14:22.721Z,21.45
2022-10-07T21:18:26.730Z,24.00
2022-10-07T21:23:02.658Z,25.05
2022-10-07T21:27:07.742Z,27.75
2022-10-07T21:31:17.681Z,28.50
2022-10-07T21:35:20.893Z,28.38
2022-10-07T21:39:26.513Z,27.88
2022-10-07T21:43:29.532Z,30.20
2022-10-07T21:47:32.742Z,34.22
2022-10-07T21:52:09.502Z,34.78
2022-10-07T21:56:14.363Z,27.00
2022-10-07T22:00:48.760Z,25.55
2022-10-07T22:04:51.913Z,38.38
2022-10-07T22:08:56.389Z,34.50
2022-10-07T22:13:33.246Z,29.60
2022-10-07T22:17:36.497Z,28.95
2022-10-07T22:22:13.718Z,25.67
2022-10-07T22:26:16.744Z,26.23
2022-10-07T22:30:55.070Z,24.27
2022-10-07T22:35:21.137Z,48.55
2022-10-07T22:39:24.279Z,51.40
2022-10-07T22:43:27.296Z,29.30
2022-10-07T22:47:31.819Z,23.65
2022-10-07T22:51:34.945Z,50.03
2022-10-07T22:56:12.564Z,22.88
2022-10-07T23:00:16.608Z,31.50
2022-10-07T23:04:51.895Z,48.92
2022-10-07T23:08:55.144Z,36.05
2022-10-07T23:13:31.807Z,57.60
2022-10-07T23:17:34.992Z,48.67
2022-10-07T23:21:39.688Z,63.85
2022-10-07T23:25:43.358Z,64.85
2022-10-07T23:29:46.503Z,61.58
2022-10-07T23:34:23.342Z,38.22
2022-10-07T23:38:28.679Z,58.85
2022-10-07T23:42:31.698Z,46.50
2022-10-07T23:46:36.574Z,75.43
2022-10-07T23:51:12.168Z,58.08
2022-10-07T23:55:16.785Z,67.75
2022-10-07T23:59:50.407Z,35.25
